< Typhoon 201403 2014 Season Typhoon 201405 >
Typhoon 201404 (PEIPAH)
General InformationTrack Information on Google MapsDetailed Wind InformationForecast History on Google MapsAccess Analytics MapList of All Images || NewsDisaster Info.WeblogTrackbackTyphoon FrontTwiphoonTyphoon Now!Typhoon ImaginationDisaster Info. XMLResourceGoogle EarthGE AnimationAtom FeedGeoJSON
Detalied Best Track (Time Zone = UTC)
Year Month Day Hour Lat. Long. Pressure (hPa) Wind (kt) Class Image Chart
2014 4 2 18 1.8 148.4 1004 0 2 Image Chart
2014 4 3 00 1.9 147.8 1006 0 2 Image Chart
2014 4 3 06 2.0 146.8 1002 0 2 Image Chart
2014 4 3 12 1.9 146.0 1004 0 2 Image Chart
2014 4 3 18 2.1 145.2 1002 0 2 Image Chart
2014 4 4 00 2.6 144.6 1004 0 2 Image Chart
2014 4 4 06 3.1 144.2 1002 0 2 Image Chart
2014 4 4 12 3.5 143.3 1004 0 2 Image Chart
2014 4 4 18 3.9 141.7 1002 0 2 Image Chart
2014 4 5 00 4.3 140.4 1000 35 3 Image Chart
2014 4 5 06 4.8 139.6 998 35 3 Image Chart
2014 4 5 12 5.2 138.8 1002 0 2 Image Chart
2014 4 5 18 5.6 137.9 1004 0 2 Image Chart
2014 4 6 00 6.1 136.8 1006 0 2 Image Chart
2014 4 6 06 6.4 135.8 1004 0 2 Image Chart
2014 4 6 12 6.8 135.3 1006 0 2 Image Chart
2014 4 6 18 7.0 134.5 1004 0 2 Image Chart
2014 4 7 00 6.9 133.0 1004 0 2 Image Chart
2014 4 7 06 6.6 132.3 1002 0 2 Image Chart
2014 4 7 12 6.5 132.0 1004 0 2 Image Chart
2014 4 7 18 6.7 131.9 1002 0 2 Image Chart
2014 4 8 00 6.8 131.6 1006 0 2 Image Chart
Japan Meteorological Agency Best Track Data | Correction Date : 2014-05-19
< Typhoon 201403 2014 Season Typhoon 201405 >

Help